sensor_id;sensor_type;location;lat;lon;timestamp;P1;durP1;ratioP1;P2;durP2;ratioP2
10882;SDS011;5494;51.796;10.952;2022-08-21T00:00:54;3.10;;;2.80;;
10882;SDS011;5494;51.796;10.952;2022-08-21T00:03:23;2.83;;;2.63;;
10882;SDS011;5494;51.796;10.952;2022-08-21T00:05:52;3.57;;;3.00;;
10882;SDS011;5494;51.796;10.952;2022-08-21T00:08:21;2.93;;;2.57;;
10882;SDS011;5494;51.796;10.952;2022-08-21T00:10:49;2.97;;;2.43;;
10882;SDS011;5494;51.796;10.952;2022-08-21T00:13:19;2.87;;;2.33;;
10882;SDS011;5494;51.796;10.952;2022-08-21T00:15:48;3.07;;;2.10;;
10882;SDS011;5494;51.796;10.952;2022-08-21T00:18:18;3.00;;;2.30;;
10882;SDS011;5494;51.796;10.952;2022-08-21T00:20:47;5.43;;;2.37;;
10882;SDS011;5494;51.796;10.952;2022-08-21T00:23:17;2.87;;;2.63;;
10882;SDS011;5494;51.796;10.952;2022-08-21T00:25:46;2.63;;;2.20;;
10882;SDS011;5494;51.796;10.952;2022-08-21T00:28:16;3.07;;;2.37;;
10882;SDS011;5494;51.796;10.952;2022-08-21T00:30:44;3.23;;;2.27;;
10882;SDS011;5494;51.796;10.952;2022-08-21T00:33:13;3.27;;;2.37;;
10882;SDS011;5494;51.796;10.952;2022-08-21T00:35:42;3.43;;;2.17;;
10882;SDS011;5494;51.796;10.952;2022-08-21T00:38:11;2.30;;;2.10;;
10882;SDS011;5494;51.796;10.952;2022-08-21T00:40:43;2.80;;;2.00;;
10882;SDS011;5494;51.796;10.952;2022-08-21T00:43:18;2.80;;;2.53;;
10882;SDS011;5494;51.796;10.952;2022-08-21T00:45:50;2.63;;;2.43;;
10882;SDS011;5494;51.796;10.952;2022-08-21T00:48:20;3.33;;;2.40;;
10882;SDS011;5494;51.796;10.952;2022-08-21T00:50:50;2.63;;;2.10;;
10882;SDS011;5494;51.796;10.952;2022-08-21T00:53:24;3.57;;;2.20;;
10882;SDS011;5494;51.796;10.952;2022-08-21T00:55:56;2.50;;;2.27;;
10882;SDS011;5494;51.796;10.952;2022-08-21T00:58:26;3.13;;;2.33;;
10882;SDS011;5494;51.796;10.952;2022-08-21T01:00:58;2.00;;;1.80;;
10882;SDS011;5494;51.796;10.952;2022-08-21T01:03:34;4.47;;;2.13;;
10882;SDS011;5494;51.796;10.952;2022-08-21T01:06:11;2.30;;;1.80;;
10882;SDS011;5494;51.796;10.952;2022-08-21T01:08:39;3.07;;;2.13;;
10882;SDS011;5494;51.796;10.952;2022-08-21T01:11:14;4.00;;;2.63;;
10882;SDS011;5494;51.796;10.952;2022-08-21T01:13:43;2.90;;;2.07;;
10882;SDS011;5494;51.796;10.952;2022-08-21T01:16:14;2.90;;;2.17;;
10882;SDS011;5494;51.796;10.952;2022-08-21T01:18:48;2.30;;;1.77;;
10882;SDS011;5494;51.796;10.952;2022-08-21T01:21:20;3.77;;;2.10;;
10882;SDS011;5494;51.796;10.952;2022-08-21T01:23:54;8.63;;;2.80;;
10882;SDS011;5494;51.796;10.952;2022-08-21T01:26:25;2.10;;;1.80;;
10882;SDS011;5494;51.796;10.952;2022-08-21T01:29:01;2.07;;;1.87;;
10882;SDS011;5494;51.796;10.952;2022-08-21T01:31:38;3.17;;;1.83;;
10882;SDS011;5494;51.796;10.952;2022-08-21T01:34:06;2.93;;;1.80;;
10882;SDS011;5494;51.796;10.952;2022-08-21T01:36:38;3.13;;;1.87;;
10882;SDS011;5494;51.796;10.952;2022-08-21T01:39:06;4.20;;;1.90;;
10882;SDS011;5494;51.796;10.952;2022-08-21T01:41:36;3.10;;;1.70;;
10882;SDS011;5494;51.796;10.952;2022-08-21T01:44:04;5.63;;;1.77;;
10882;SDS011;5494;51.796;10.952;2022-08-21T01:46:33;2.80;;;1.70;;
10882;SDS011;5494;51.796;10.952;2022-08-21T01:49:02;2.47;;;1.80;;
10882;SDS011;5494;51.796;10.952;2022-08-21T01:51:31;5.43;;;1.73;;
10882;SDS011;5494;51.796;10.952;2022-08-21T01:54:01;3.13;;;1.63;;
10882;SDS011;5494;51.796;10.952;2022-08-21T01:56:34;4.47;;;1.60;;
10882;SDS011;5494;51.796;10.952;2022-08-21T01:59:05;3.27;;;1.90;;
10882;SDS011;5494;51.796;10.952;2022-08-21T02:01:35;2.80;;;1.57;;
10882;SDS011;5494;51.796;10.952;2022-08-21T02:04:06;5.33;;;1.60;;
10882;SDS011;5494;51.796;10.952;2022-08-21T02:06:37;2.33;;;1.80;;
10882;SDS011;5494;51.796;10.952;2022-08-21T02:09:09;4.30;;;1.63;;
10882;SDS011;5494;51.796;10.952;2022-08-21T02:11:40;3.30;;;1.60;;
10882;SDS011;5494;51.796;10.952;2022-08-21T02:14:10;3.47;;;1.37;;
10882;SDS011;5494;51.796;10.952;2022-08-21T02:16:58;2.93;;;1.57;;
10882;SDS011;5494;51.796;10.952;2022-08-21T02:19:35;7.80;;;1.50;;
10882;SDS011;5494;51.796;10.952;2022-08-21T02:22:07;2.70;;;1.70;;
10882;SDS011;5494;51.796;10.952;2022-08-21T02:24:38;4.30;;;1.80;;
10882;SDS011;5494;51.796;10.952;2022-08-21T02:27:21;3.60;;;1.60;;
10882;SDS011;5494;51.796;10.952;2022-08-21T02:29:53;3.00;;;1.40;;
10882;SDS011;5494;51.796;10.952;2022-08-21T02:32:24;1.90;;;1.40;;
10882;SDS011;5494;51.796;10.952;2022-08-21T02:34:53;2.33;;;1.50;;
10882;SDS011;5494;51.796;10.952;2022-08-21T02:37:22;2.90;;;1.50;;
10882;SDS011;5494;51.796;10.952;2022-08-21T02:39:52;3.40;;;1.60;;
10882;SDS011;5494;51.796;10.952;2022-08-21T02:42:20;2.63;;;1.27;;
10882;SDS011;5494;51.796;10.952;2022-08-21T02:44:49;3.93;;;1.53;;
10882;SDS011;5494;51.796;10.952;2022-08-21T02:47:17;3.97;;;1.60;;
10882;SDS011;5494;51.796;10.952;2022-08-21T02:49:46;3.27;;;1.50;;
10882;SDS011;5494;51.796;10.952;2022-08-21T02:52:14;2.47;;;1.50;;
10882;SDS011;5494;51.796;10.952;2022-08-21T02:54:43;2.73;;;1.30;;
10882;SDS011;5494;51.796;10.952;2022-08-21T02:57:13;3.43;;;1.50;;
10882;SDS011;5494;51.796;10.952;2022-08-21T02:59:42;3.03;;;1.50;;
10882;SDS011;5494;51.796;10.952;2022-08-21T03:02:10;3.63;;;1.90;;
10882;SDS011;5494;51.796;10.952;2022-08-21T03:04:39;2.30;;;1.40;;
10882;SDS011;5494;51.796;10.952;2022-08-21T03:07:12;3.50;;;1.40;;
10882;SDS011;5494;51.796;10.952;2022-08-21T03:09:41;3.23;;;1.67;;
10882;SDS011;5494;51.796;10.952;2022-08-21T03:12:22;3.40;;;1.60;;
10882;SDS011;5494;51.796;10.952;2022-08-21T03:14:56;2.23;;;1.13;;
10882;SDS011;5494;51.796;10.952;2022-08-21T03:17:25;3.23;;;1.87;;
10882;SDS011;5494;51.796;10.952;2022-08-21T03:19:56;4.70;;;1.47;;
10882;SDS011;5494;51.796;10.952;2022-08-21T03:22:26;2.53;;;1.57;;
10882;SDS011;5494;51.796;10.952;2022-08-21T03:24:56;1.90;;;1.30;;
10882;SDS011;5494;51.796;10.952;2022-08-21T03:27:26;2.20;;;1.50;;
10882;SDS011;5494;51.796;10.952;2022-08-21T03:29:57;2.90;;;1.27;;
10882;SDS011;5494;51.796;10.952;2022-08-21T03:32:26;2.97;;;1.40;;
10882;SDS011;5494;51.796;10.952;2022-08-21T03:34:56;4.80;;;1.60;;
10882;SDS011;5494;51.796;10.952;2022-08-21T03:37:24;2.07;;;1.73;;
10882;SDS011;5494;51.796;10.952;2022-08-21T03:39:53;4.73;;;1.50;;
10882;SDS011;5494;51.796;10.952;2022-08-21T03:42:22;1.97;;;1.23;;
10882;SDS011;5494;51.796;10.952;2022-08-21T03:44:52;4.20;;;1.63;;
10882;SDS011;5494;51.796;10.952;2022-08-21T03:47:20;5.77;;;2.37;;
10882;SDS011;5494;51.796;10.952;2022-08-21T03:49:49;2.73;;;1.33;;
10882;SDS011;5494;51.796;10.952;2022-08-21T03:52:18;2.97;;;1.37;;
10882;SDS011;5494;51.796;10.952;2022-08-21T03:54:46;4.53;;;1.70;;
10882;SDS011;5494;51.796;10.952;2022-08-21T03:57:14;2.47;;;1.20;;
10882;SDS011;5494;51.796;10.952;2022-08-21T03:59:43;2.67;;;1.50;;
10882;SDS011;5494;51.796;10.952;2022-08-21T04:02:13;3.63;;;1.63;;
10882;SDS011;5494;51.796;10.952;2022-08-21T04:04:48;2.50;;;1.30;;
10882;SDS011;5494;51.796;10.952;2022-08-21T04:07:17;2.60;;;1.50;;
10882;SDS011;5494;51.796;10.952;2022-08-21T04:09:45;3.53;;;1.67;;
10882;SDS011;5494;51.796;10.952;2022-08-21T04:12:14;3.67;;;1.60;;
10882;SDS011;5494;51.796;10.952;2022-08-21T04:14:42;3.83;;;1.43;;
10882;SDS011;5494;51.796;10.952;2022-08-21T04:17:12;2.80;;;1.50;;
10882;SDS011;5494;51.796;10.952;2022-08-21T04:19:40;4.10;;;1.87;;
10882;SDS011;5494;51.796;10.952;2022-08-21T04:22:09;2.83;;;1.70;;
10882;SDS011;5494;51.796;10.952;2022-08-21T04:24:37;3.83;;;1.87;;
10882;SDS011;5494;51.796;10.952;2022-08-21T04:27:06;2.87;;;1.93;;
10882;SDS011;5494;51.796;10.952;2022-08-21T04:29:35;3.77;;;1.60;;
10882;SDS011;5494;51.796;10.952;2022-08-21T04:32:05;2.10;;;1.63;;
10882;SDS011;5494;51.796;10.952;2022-08-21T04:34:36;2.00;;;1.80;;
10882;SDS011;5494;51.796;10.952;2022-08-21T04:37:04;3.33;;;1.63;;
10882;SDS011;5494;51.796;10.952;2022-08-21T04:39:32;2.50;;;1.33;;
10882;SDS011;5494;51.796;10.952;2022-08-21T04:42:02;1.83;;;1.60;;
10882;SDS011;5494;51.796;10.952;2022-08-21T04:44:33;3.87;;;1.80;;
10882;SDS011;5494;51.796;10.952;2022-08-21T04:47:01;3.93;;;1.80;;
10882;SDS011;5494;51.796;10.952;2022-08-21T04:49:30;3.13;;;1.90;;
10882;SDS011;5494;51.796;10.952;2022-08-21T04:51:59;3.23;;;1.60;;
10882;SDS011;5494;51.796;10.952;2022-08-21T04:54:29;2.63;;;1.60;;
10882;SDS011;5494;51.796;10.952;2022-08-21T04:56:59;3.87;;;1.80;;
10882;SDS011;5494;51.796;10.952;2022-08-21T04:59:35;3.53;;;1.80;;
10882;SDS011;5494;51.796;10.952;2022-08-21T05:02:07;5.03;;;1.70;;
10882;SDS011;5494;51.796;10.952;2022-08-21T05:04:40;4.60;;;2.13;;
10882;SDS011;5494;51.796;10.952;2022-08-21T05:07:16;5.43;;;1.70;;
10882;SDS011;5494;51.796;10.952;2022-08-21T05:10:08;5.00;;;1.77;;
10882;SDS011;5494;51.796;10.952;2022-08-21T05:12:39;3.63;;;1.80;;
10882;SDS011;5494;51.796;10.952;2022-08-21T05:15:09;3.07;;;1.67;;
10882;SDS011;5494;51.796;10.952;2022-08-21T05:17:39;4.03;;;1.90;;
10882;SDS011;5494;51.796;10.952;2022-08-21T05:20:09;4.37;;;1.77;;
10882;SDS011;5494;51.796;10.952;2022-08-21T05:22:42;7.57;;;1.80;;
10882;SDS011;5494;51.796;10.952;2022-08-21T05:25:10;5.40;;;1.90;;
10882;SDS011;5494;51.796;10.952;2022-08-21T05:27:39;2.70;;;1.60;;
10882;SDS011;5494;51.796;10.952;2022-08-21T05:30:08;5.97;;;1.70;;
10882;SDS011;5494;51.796;10.952;2022-08-21T05:32:38;2.40;;;1.80;;
10882;SDS011;5494;51.796;10.952;2022-08-21T05:35:07;3.17;;;1.80;;
10882;SDS011;5494;51.796;10.952;2022-08-21T05:37:36;3.63;;;1.93;;
10882;SDS011;5494;51.796;10.952;2022-08-21T05:40:06;4.50;;;2.00;;
10882;SDS011;5494;51.796;10.952;2022-08-21T05:42:49;3.53;;;1.97;;
10882;SDS011;5494;51.796;10.952;2022-08-21T05:45:21;1.70;;;1.50;;
10882;SDS011;5494;51.796;10.952;2022-08-21T05:48:09;2.87;;;1.80;;
10882;SDS011;5494;51.796;10.952;2022-08-21T05:50:42;3.73;;;1.50;;
10882;SDS011;5494;51.796;10.952;2022-08-21T05:53:15;2.80;;;1.43;;
10882;SDS011;5494;51.796;10.952;2022-08-21T05:55:48;3.73;;;1.57;;
10882;SDS011;5494;51.796;10.952;2022-08-21T05:58:19;4.20;;;1.57;;
10882;SDS011;5494;51.796;10.952;2022-08-21T06:00:50;2.60;;;1.67;;
10882;SDS011;5494;51.796;10.952;2022-08-21T06:03:20;4.63;;;2.00;;
10882;SDS011;5494;51.796;10.952;2022-08-21T06:05:52;2.53;;;1.60;;
10882;SDS011;5494;51.796;10.952;2022-08-21T06:08:22;4.80;;;1.83;;
10882;SDS011;5494;51.796;10.952;2022-08-21T06:10:54;2.73;;;1.47;;
10882;SDS011;5494;51.796;10.952;2022-08-21T06:13:25;5.00;;;1.80;;
10882;SDS011;5494;51.796;10.952;2022-08-21T06:16:00;4.67;;;1.70;;
10882;SDS011;5494;51.796;10.952;2022-08-21T06:18:33;3.40;;;1.70;;
10882;SDS011;5494;51.796;10.952;2022-08-21T06:21:02;3.67;;;1.63;;
10882;SDS011;5494;51.796;10.952;2022-08-21T06:23:32;3.20;;;2.10;;
10882;SDS011;5494;51.796;10.952;2022-08-21T06:26:04;3.43;;;1.70;;
10882;SDS011;5494;51.796;10.952;2022-08-21T06:28:34;3.60;;;1.70;;
10882;SDS011;5494;51.796;10.952;2022-08-21T06:31:09;4.00;;;1.70;;
10882;SDS011;5494;51.796;10.952;2022-08-21T06:33:41;2.73;;;1.40;;
10882;SDS011;5494;51.796;10.952;2022-08-21T06:36:09;3.47;;;1.43;;
10882;SDS011;5494;51.796;10.952;2022-08-21T06:38:38;3.70;;;1.37;;
10882;SDS011;5494;51.796;10.952;2022-08-21T06:41:16;3.13;;;1.73;;
10882;SDS011;5494;51.796;10.952;2022-08-21T06:43:50;1.77;;;1.20;;
10882;SDS011;5494;51.796;10.952;2022-08-21T06:46:18;3.47;;;1.73;;
10882;SDS011;5494;51.796;10.952;2022-08-21T06:48:46;6.13;;;1.67;;
10882;SDS011;5494;51.796;10.952;2022-08-21T06:51:16;1.97;;;1.67;;
10882;SDS011;5494;51.796;10.952;2022-08-21T06:53:46;3.93;;;1.87;;
10882;SDS011;5494;51.796;10.952;2022-08-21T06:56:16;4.37;;;1.83;;
10882;SDS011;5494;51.796;10.952;2022-08-21T06:58:45;3.30;;;1.80;;
10882;SDS011;5494;51.796;10.952;2022-08-21T07:01:13;4.20;;;1.70;;
10882;SDS011;5494;51.796;10.952;2022-08-21T07:03:43;4.57;;;1.80;;
10882;SDS011;5494;51.796;10.952;2022-08-21T07:06:11;4.33;;;1.80;;
10882;SDS011;5494;51.796;10.952;2022-08-21T07:08:40;3.23;;;1.63;;
10882;SDS011;5494;51.796;10.952;2022-08-21T07:11:09;2.93;;;1.97;;
10882;SDS011;5494;51.796;10.952;2022-08-21T07:13:47;3.43;;;1.73;;
10882;SDS011;5494;51.796;10.952;2022-08-21T07:16:18;3.70;;;1.80;;
10882;SDS011;5494;51.796;10.952;2022-08-21T07:18:47;2.93;;;1.50;;
10882;SDS011;5494;51.796;10.952;2022-08-21T07:21:16;4.27;;;1.93;;
10882;SDS011;5494;51.796;10.952;2022-08-21T07:23:51;4.03;;;1.70;;
10882;SDS011;5494;51.796;10.952;2022-08-21T07:26:20;3.50;;;1.70;;
10882;SDS011;5494;51.796;10.952;2022-08-21T07:28:52;3.17;;;1.60;;
10882;SDS011;5494;51.796;10.952;2022-08-21T07:31:22;3.17;;;1.70;;
10882;SDS011;5494;51.796;10.952;2022-08-21T07:33:52;3.67;;;1.87;;
10882;SDS011;5494;51.796;10.952;2022-08-21T07:36:21;3.13;;;1.83;;
10882;SDS011;5494;51.796;10.952;2022-08-21T07:38:50;2.93;;;1.47;;
10882;SDS011;5494;51.796;10.952;2022-08-21T07:41:20;3.77;;;1.50;;
10882;SDS011;5494;51.796;10.952;2022-08-21T07:43:53;2.07;;;1.37;;
10882;SDS011;5494;51.796;10.952;2022-08-21T07:46:22;6.17;;;1.70;;
10882;SDS011;5494;51.796;10.952;2022-08-21T07:48:52;2.03;;;1.50;;
10882;SDS011;5494;51.796;10.952;2022-08-21T07:51:21;1.63;;;1.00;;
10882;SDS011;5494;51.796;10.952;2022-08-21T07:53:56;3.60;;;1.70;;
10882;SDS011;5494;51.796;10.952;2022-08-21T07:56:26;3.07;;;1.33;;
10882;SDS011;5494;51.796;10.952;2022-08-21T07:58:57;3.10;;;1.40;;
10882;SDS011;5494;51.796;10.952;2022-08-21T08:01:26;3.37;;;1.73;;
10882;SDS011;5494;51.796;10.952;2022-08-21T08:03:55;1.83;;;1.30;;
10882;SDS011;5494;51.796;10.952;2022-08-21T08:06:24;2.53;;;1.47;;
10882;SDS011;5494;51.796;10.952;2022-08-21T08:08:52;4.23;;;1.43;;
10882;SDS011;5494;51.796;10.952;2022-08-21T08:11:21;4.10;;;1.20;;
10882;SDS011;5494;51.796;10.952;2022-08-21T08:13:50;2.40;;;1.30;;
10882;SDS011;5494;51.796;10.952;2022-08-21T08:16:21;3.53;;;1.40;;
10882;SDS011;5494;51.796;10.952;2022-08-21T08:18:49;3.70;;;1.33;;
10882;SDS011;5494;51.796;10.952;2022-08-21T08:21:18;3.00;;;1.60;;
10882;SDS011;5494;51.796;10.952;2022-08-21T08:23:47;1.97;;;1.50;;
10882;SDS011;5494;51.796;10.952;2022-08-21T08:26:16;4.67;;;1.80;;
10882;SDS011;5494;51.796;10.952;2022-08-21T08:28:45;2.93;;;1.30;;
10882;SDS011;5494;51.796;10.952;2022-08-21T08:31:14;4.20;;;1.63;;
10882;SDS011;5494;51.796;10.952;2022-08-21T08:33:44;3.23;;;1.57;;
10882;SDS011;5494;51.796;10.952;2022-08-21T08:36:13;3.07;;;1.73;;
10882;SDS011;5494;51.796;10.952;2022-08-21T08:38:46;3.13;;;1.60;;
10882;SDS011;5494;51.796;10.952;2022-08-21T08:41:17;3.67;;;1.70;;
10882;SDS011;5494;51.796;10.952;2022-08-21T08:43:58;4.23;;;1.80;;
10882;SDS011;5494;51.796;10.952;2022-08-21T08:46:31;3.73;;;1.60;;
10882;SDS011;5494;51.796;10.952;2022-08-21T08:49:09;3.27;;;1.53;;
10882;SDS011;5494;51.796;10.952;2022-08-21T08:51:48;4.10;;;1.80;;
10882;SDS011;5494;51.796;10.952;2022-08-21T08:54:27;3.70;;;1.80;;
10882;SDS011;5494;51.796;10.952;2022-08-21T08:57:03;2.57;;;1.70;;
10882;SDS011;5494;51.796;10.952;2022-08-21T08:59:43;2.70;;;1.67;;
10882;SDS011;5494;51.796;10.952;2022-08-21T09:02:18;2.97;;;1.80;;
10882;SDS011;5494;51.796;10.952;2022-08-21T09:04:49;4.37;;;2.17;;
10882;SDS011;5494;51.796;10.952;2022-08-21T09:07:20;4.90;;;1.83;;
10882;SDS011;5494;51.796;10.952;2022-08-21T09:10:11;6.63;;;2.10;;
10882;SDS011;5494;51.796;10.952;2022-08-21T09:12:46;5.20;;;2.00;;
10882;SDS011;5494;51.796;10.952;2022-08-21T09:15:26;3.07;;;1.93;;
10882;SDS011;5494;51.796;10.952;2022-08-21T09:18:09;4.40;;;1.73;;
10882;SDS011;5494;51.796;10.952;2022-08-21T09:20:58;4.30;;;1.63;;
10882;SDS011;5494;51.796;10.952;2022-08-21T09:23:40;4.13;;;1.60;;
10882;SDS011;5494;51.796;10.952;2022-08-21T09:26:23;3.40;;;1.50;;
10882;SDS011;5494;51.796;10.952;2022-08-21T09:28:55;3.43;;;1.80;;
10882;SDS011;5494;51.796;10.952;2022-08-21T09:31:28;3.03;;;1.73;;
10882;SDS011;5494;51.796;10.952;2022-08-21T09:34:01;3.47;;;1.77;;
10882;SDS011;5494;51.796;10.952;2022-08-21T09:36:37;5.27;;;1.97;;
10882;SDS011;5494;51.796;10.952;2022-08-21T09:39:10;2.83;;;1.77;;
10882;SDS011;5494;51.796;10.952;2022-08-21T09:41:41;4.47;;;1.87;;
10882;SDS011;5494;51.796;10.952;2022-08-21T09:44:10;4.43;;;2.00;;
10882;SDS011;5494;51.796;10.952;2022-08-21T09:46:38;2.77;;;1.70;;
10882;SDS011;5494;51.796;10.952;2022-08-21T09:49:26;5.03;;;2.00;;
10882;SDS011;5494;51.796;10.952;2022-08-21T09:51:58;5.13;;;2.57;;
10882;SDS011;5494;51.796;10.952;2022-08-21T09:54:30;3.03;;;1.70;;
10882;SDS011;5494;51.796;10.952;2022-08-21T09:57:11;4.20;;;1.77;;
10882;SDS011;5494;51.796;10.952;2022-08-21T10:00:15;3.07;;;1.80;;
10882;SDS011;5494;51.796;10.952;2022-08-21T10:02:52;3.57;;;1.63;;
10882;SDS011;5494;51.796;10.952;2022-08-21T10:05:22;5.13;;;2.00;;
10882;SDS011;5494;51.796;10.952;2022-08-21T10:07:56;4.13;;;1.80;;
10882;SDS011;5494;51.796;10.952;2022-08-21T10:10:25;4.40;;;1.70;;
10882;SDS011;5494;51.796;10.952;2022-08-21T10:12:58;2.10;;;1.70;;
10882;SDS011;5494;51.796;10.952;2022-08-21T10:15:45;3.13;;;1.70;;
10882;SDS011;5494;51.796;10.952;2022-08-21T10:18:27;3.67;;;2.20;;
10882;SDS011;5494;51.796;10.952;2022-08-21T10:21:04;3.23;;;1.90;;
10882;SDS011;5494;51.796;10.952;2022-08-21T10:23:49;2.47;;;1.80;;
10882;SDS011;5494;51.796;10.952;2022-08-21T10:26:35;4.03;;;2.10;;
10882;SDS011;5494;51.796;10.952;2022-08-21T10:29:19;4.80;;;2.00;;
10882;SDS011;5494;51.796;10.952;2022-08-21T10:32:14;3.90;;;2.10;;
10882;SDS011;5494;51.796;10.952;2022-08-21T10:35:08;3.50;;;2.20;;
10882;SDS011;5494;51.796;10.952;2022-08-21T10:37:48;4.63;;;1.80;;
10882;SDS011;5494;51.796;10.952;2022-08-21T10:40:34;3.70;;;1.97;;
10882;SDS011;5494;51.796;10.952;2022-08-21T10:43:16;3.40;;;1.90;;
10882;SDS011;5494;51.796;10.952;2022-08-21T10:46:00;4.53;;;1.90;;
10882;SDS011;5494;51.796;10.952;2022-08-21T10:48:42;3.87;;;1.80;;
10882;SDS011;5494;51.796;10.952;2022-08-21T10:51:19;4.17;;;1.70;;
10882;SDS011;5494;51.796;10.952;2022-08-21T10:54:02;3.90;;;2.10;;
10882;SDS011;5494;51.796;10.952;2022-08-21T10:56:48;2.70;;;1.80;;
10882;SDS011;5494;51.796;10.952;2022-08-21T10:59:31;3.80;;;2.20;;
10882;SDS011;5494;51.796;10.952;2022-08-21T11:02:11;4.30;;;1.90;;
10882;SDS011;5494;51.796;10.952;2022-08-21T11:04:50;3.23;;;1.90;;
10882;SDS011;5494;51.796;10.952;2022-08-21T11:07:26;5.63;;;1.90;;
10882;SDS011;5494;51.796;10.952;2022-08-21T11:10:01;5.57;;;2.23;;
10882;SDS011;5494;51.796;10.952;2022-08-21T11:12:41;4.83;;;2.77;;
10882;SDS011;5494;51.796;10.952;2022-08-21T11:15:24;5.27;;;2.30;;
10882;SDS011;5494;51.796;10.952;2022-08-21T11:18:02;4.40;;;2.13;;
10882;SDS011;5494;51.796;10.952;2022-08-21T11:20:46;3.40;;;2.50;;
10882;SDS011;5494;51.796;10.952;2022-08-21T11:23:25;3.67;;;2.13;;
10882;SDS011;5494;51.796;10.952;2022-08-21T11:26:00;4.60;;;2.43;;
10882;SDS011;5494;51.796;10.952;2022-08-21T11:28:37;4.67;;;2.23;;
10882;SDS011;5494;51.796;10.952;2022-08-21T11:31:17;4.53;;;2.30;;
10882;SDS011;5494;51.796;10.952;2022-08-21T11:34:09;3.37;;;1.97;;
10882;SDS011;5494;51.796;10.952;2022-08-21T11:36:57;4.90;;;2.70;;
10882;SDS011;5494;51.796;10.952;2022-08-21T11:39:39;4.53;;;2.60;;
10882;SDS011;5494;51.796;10.952;2022-08-21T11:42:24;4.77;;;2.93;;
10882;SDS011;5494;51.796;10.952;2022-08-21T11:45:12;5.10;;;2.53;;
10882;SDS011;5494;51.796;10.952;2022-08-21T11:47:56;4.57;;;2.83;;
10882;SDS011;5494;51.796;10.952;2022-08-21T11:50:37;4.53;;;2.70;;
10882;SDS011;5494;51.796;10.952;2022-08-21T11:53:11;3.70;;;2.53;;
10882;SDS011;5494;51.796;10.952;2022-08-21T11:55:46;4.93;;;2.33;;
10882;SDS011;5494;51.796;10.952;2022-08-21T11:58:22;5.07;;;2.50;;
10882;SDS011;5494;51.796;10.952;2022-08-21T12:00:58;6.57;;;2.80;;
10882;SDS011;5494;51.796;10.952;2022-08-21T12:03:35;4.77;;;2.70;;
10882;SDS011;5494;51.796;10.952;2022-08-21T12:06:10;5.37;;;2.57;;
10882;SDS011;5494;51.796;10.952;2022-08-21T12:08:56;6.87;;;3.30;;
10882;SDS011;5494;51.796;10.952;2022-08-21T12:11:28;4.07;;;2.70;;
10882;SDS011;5494;51.796;10.952;2022-08-21T12:13:58;3.90;;;2.77;;
10882;SDS011;5494;51.796;10.952;2022-08-21T12:16:42;3.83;;;2.50;;
10882;SDS011;5494;51.796;10.952;2022-08-21T12:19:16;4.43;;;2.80;;
10882;SDS011;5494;51.796;10.952;2022-08-21T12:21:59;5.83;;;3.10;;
10882;SDS011;5494;51.796;10.952;2022-08-21T12:24:38;4.70;;;2.63;;
10882;SDS011;5494;51.796;10.952;2022-08-21T12:27:18;5.03;;;2.80;;
10882;SDS011;5494;51.796;10.952;2022-08-21T12:30:00;5.27;;;3.00;;
10882;SDS011;5494;51.796;10.952;2022-08-21T12:32:44;5.90;;;3.40;;
10882;SDS011;5494;51.796;10.952;2022-08-21T12:35:23;5.37;;;3.40;;
10882;SDS011;5494;51.796;10.952;2022-08-21T12:38:00;7.10;;;3.00;;
10882;SDS011;5494;51.796;10.952;2022-08-21T12:40:37;4.10;;;2.80;;
10882;SDS011;5494;51.796;10.952;2022-08-21T12:43:11;4.30;;;2.90;;
10882;SDS011;5494;51.796;10.952;2022-08-21T12:45:47;4.87;;;3.07;;
10882;SDS011;5494;51.796;10.952;2022-08-21T12:48:22;4.03;;;2.97;;
10882;SDS011;5494;51.796;10.952;2022-08-21T12:51:05;5.20;;;2.87;;
10882;SDS011;5494;51.796;10.952;2022-08-21T12:53:42;4.73;;;3.00;;
10882;SDS011;5494;51.796;10.952;2022-08-21T12:56:17;8.30;;;3.23;;
10882;SDS011;5494;51.796;10.952;2022-08-21T12:58:51;5.23;;;2.97;;
10882;SDS011;5494;51.796;10.952;2022-08-21T13:01:25;7.43;;;3.60;;
10882;SDS011;5494;51.796;10.952;2022-08-21T13:04:10;4.43;;;2.90;;
10882;SDS011;5494;51.796;10.952;2022-08-21T13:06:43;6.10;;;3.23;;
10882;SDS011;5494;51.796;10.952;2022-08-21T13:09:15;4.27;;;3.10;;
10882;SDS011;5494;51.796;10.952;2022-08-21T13:11:49;4.27;;;2.90;;
10882;SDS011;5494;51.796;10.952;2022-08-21T13:14:20;8.70;;;3.33;;
10882;SDS011;5494;51.796;10.952;2022-08-21T13:16:58;4.17;;;2.93;;
10882;SDS011;5494;51.796;10.952;2022-08-21T13:19:32;3.87;;;2.70;;
10882;SDS011;5494;51.796;10.952;2022-08-21T13:22:01;3.50;;;2.90;;
10882;SDS011;5494;51.796;10.952;2022-08-21T13:24:51;5.53;;;2.73;;
10882;SDS011;5494;51.796;10.952;2022-08-21T13:27:24;4.03;;;2.90;;
10882;SDS011;5494;51.796;10.952;2022-08-21T13:30:02;5.33;;;3.23;;
10882;SDS011;5494;51.796;10.952;2022-08-21T13:32:38;4.73;;;2.77;;
10882;SDS011;5494;51.796;10.952;2022-08-21T13:35:15;5.73;;;3.67;;
10882;SDS011;5494;51.796;10.952;2022-08-21T13:37:48;4.57;;;3.27;;
10882;SDS011;5494;51.796;10.952;2022-08-21T13:40:19;6.57;;;2.80;;
10882;SDS011;5494;51.796;10.952;2022-08-21T13:42:52;4.97;;;3.63;;
10882;SDS011;5494;51.796;10.952;2022-08-21T13:45:23;5.50;;;3.40;;
10882;SDS011;5494;51.796;10.952;2022-08-21T13:47:54;6.10;;;3.80;;
10882;SDS011;5494;51.796;10.952;2022-08-21T13:50:24;3.90;;;3.13;;
10882;SDS011;5494;51.796;10.952;2022-08-21T13:52:55;5.63;;;3.10;;
10882;SDS011;5494;51.796;10.952;2022-08-21T13:55:36;5.13;;;3.20;;
10882;SDS011;5494;51.796;10.952;2022-08-21T13:58:09;4.40;;;3.33;;
10882;SDS011;5494;51.796;10.952;2022-08-21T14:00:43;6.67;;;3.10;;
10882;SDS011;5494;51.796;10.952;2022-08-21T14:03:23;5.80;;;2.93;;
10882;SDS011;5494;51.796;10.952;2022-08-21T14:06:01;5.60;;;3.10;;
10882;SDS011;5494;51.796;10.952;2022-08-21T14:08:38;4.70;;;3.03;;
10882;SDS011;5494;51.796;10.952;2022-08-21T14:11:09;6.53;;;2.93;;
10882;SDS011;5494;51.796;10.952;2022-08-21T14:13:42;54.90;;;6.90;;
10882;SDS011;5494;51.796;10.952;2022-08-21T14:16:15;4.53;;;2.80;;
10882;SDS011;5494;51.796;10.952;2022-08-21T14:18:49;5.10;;;2.80;;
10882;SDS011;5494;51.796;10.952;2022-08-21T14:21:27;4.83;;;3.03;;
10882;SDS011;5494;51.796;10.952;2022-08-21T14:24:03;5.57;;;3.07;;
10882;SDS011;5494;51.796;10.952;2022-08-21T14:26:45;3.80;;;2.50;;
10882;SDS011;5494;51.796;10.952;2022-08-21T14:29:19;5.50;;;3.47;;
10882;SDS011;5494;51.796;10.952;2022-08-21T14:31:52;3.97;;;2.80;;
10882;SDS011;5494;51.796;10.952;2022-08-21T14:34:25;3.47;;;2.40;;
10882;SDS011;5494;51.796;10.952;2022-08-21T14:37:03;4.13;;;3.20;;
10882;SDS011;5494;51.796;10.952;2022-08-21T14:39:32;4.07;;;3.00;;
10882;SDS011;5494;51.796;10.952;2022-08-21T14:42:01;4.40;;;2.80;;
10882;SDS011;5494;51.796;10.952;2022-08-21T14:44:30;5.00;;;2.70;;
10882;SDS011;5494;51.796;10.952;2022-08-21T14:46:59;3.40;;;2.60;;
10882;SDS011;5494;51.796;10.952;2022-08-21T14:49:28;4.37;;;2.80;;
10882;SDS011;5494;51.796;10.952;2022-08-21T14:51:57;3.40;;;2.93;;
10882;SDS011;5494;51.796;10.952;2022-08-21T14:54:28;4.83;;;3.20;;
10882;SDS011;5494;51.796;10.952;2022-08-21T14:56:59;5.33;;;2.70;;
10882;SDS011;5494;51.796;10.952;2022-08-21T14:59:34;5.03;;;3.20;;
10882;SDS011;5494;51.796;10.952;2022-08-21T15:02:08;6.03;;;3.03;;
10882;SDS011;5494;51.796;10.952;2022-08-21T15:04:37;6.23;;;3.30;;
10882;SDS011;5494;51.796;10.952;2022-08-21T15:07:06;4.57;;;2.73;;
10882;SDS011;5494;51.796;10.952;2022-08-21T15:09:36;4.97;;;2.70;;
10882;SDS011;5494;51.796;10.952;2022-08-21T15:12:05;5.53;;;2.60;;
10882;SDS011;5494;51.796;10.952;2022-08-21T15:14:35;2.73;;;2.33;;
10882;SDS011;5494;51.796;10.952;2022-08-21T15:17:07;3.03;;;2.30;;
10882;SDS011;5494;51.796;10.952;2022-08-21T15:19:38;3.17;;;2.23;;
10882;SDS011;5494;51.796;10.952;2022-08-21T15:22:07;4.43;;;2.40;;
10882;SDS011;5494;51.796;10.952;2022-08-21T15:24:46;5.80;;;2.80;;